createdAt,value
2018-11-27T00:01:41.118Z,1.60
2018-11-27T00:04:18.670Z,1.50
2018-11-27T00:06:49.567Z,1.50
2018-11-27T00:09:20.511Z,1.50
2018-11-27T00:11:51.397Z,1.40
2018-11-27T00:14:23.009Z,1.50
2018-11-27T00:16:53.988Z,1.50
2018-11-27T00:19:24.925Z,1.50
2018-11-27T00:21:55.850Z,1.50
2018-11-27T00:24:26.842Z,1.50
2018-11-27T00:26:57.724Z,1.40
2018-11-27T00:29:28.632Z,1.40
2018-11-27T00:31:59.551Z,1.30
2018-11-27T00:34:30.619Z,1.30
2018-11-27T00:37:01.799Z,1.40
2018-11-27T00:39:32.731Z,1.50
2018-11-27T00:42:04.338Z,1.50
2018-11-27T00:44:35.267Z,1.40
2018-11-27T00:47:06.710Z,1.40
2018-11-27T00:49:37.638Z,1.30
2018-11-27T00:52:08.566Z,1.40
2018-11-27T00:54:39.478Z,1.40
2018-11-27T00:57:10.310Z,1.40
2018-11-27T00:59:41.202Z,1.40
2018-11-27T01:02:12.178Z,1.40
2018-11-27T01:04:43.386Z,1.40
2018-11-27T01:07:15.298Z,1.50
2018-11-27T01:09:46.221Z,1.50
2018-11-27T01:12:17.133Z,1.50
2018-11-27T01:14:48.059Z,1.50
2018-11-27T01:17:19.097Z,1.50
2018-11-27T01:19:50.066Z,1.40
2018-11-27T01:22:20.939Z,1.50
2018-11-27T01:24:51.843Z,1.50
2018-11-27T01:27:22.731Z,1.60
2018-11-27T01:29:53.782Z,1.50
2018-11-27T01:32:24.663Z,1.50
2018-11-27T01:34:55.601Z,1.50
2018-11-27T01:37:26.474Z,1.50
2018-11-27T01:39:57.380Z,1.50
2018-11-27T01:42:28.255Z,1.50
2018-11-27T01:44:59.170Z,1.50
2018-11-27T01:47:30.043Z,1.50
2018-11-27T01:50:00.975Z,1.50
2018-11-27T01:52:32.026Z,1.40
2018-11-27T01:55:02.933Z,1.50
2018-11-27T01:57:33.814Z,1.50
2018-11-27T02:00:06.343Z,1.40
2018-11-27T02:02:38.218Z,1.50
2018-11-27T02:05:10.276Z,1.40
2018-11-27T02:07:41.321Z,1.40
2018-11-27T02:10:13.842Z,1.40
2018-11-27T02:12:46.898Z,1.50
2018-11-27T02:15:24.078Z,1.60
2018-11-27T02:17:55.132Z,1.70
2018-11-27T02:20:26.618Z,1.80
2018-11-27T02:22:57.534Z,1.80
2018-11-27T02:25:30.251Z,1.70
2018-11-27T02:28:05.266Z,1.60
2018-11-27T02:30:36.322Z,1.60
2018-11-27T02:33:07.422Z,1.60
2018-11-27T02:35:38.413Z,1.70
2018-11-27T02:38:09.322Z,1.60
2018-11-27T02:40:40.339Z,1.50
2018-11-27T02:43:11.279Z,1.50
2018-11-27T02:45:42.324Z,1.50
2018-11-27T02:48:13.239Z,1.40
2018-11-27T02:50:44.219Z,1.40
2018-11-27T02:53:15.122Z,1.50
2018-11-27T02:55:46.099Z,1.50
2018-11-27T02:58:17.053Z,1.50
2018-11-27T03:00:48.018Z,1.50
2018-11-27T03:03:18.935Z,1.50
2018-11-27T03:05:49.946Z,1.40
2018-11-27T03:08:20.899Z,1.40
2018-11-27T03:10:51.879Z,1.40
2018-11-27T03:13:22.926Z,1.50
2018-11-27T03:15:54.274Z,1.60
2018-11-27T03:18:25.699Z,1.60
2018-11-27T03:20:57.080Z,1.60
2018-11-27T03:23:27.979Z,1.50
2018-11-27T03:25:58.979Z,1.40
2018-11-27T03:28:29.940Z,1.40
2018-11-27T03:31:01.105Z,1.40
2018-11-27T03:33:33.002Z,1.40
2018-11-27T03:36:04.390Z,1.50
2018-11-27T03:38:35.365Z,1.50
2018-11-27T03:41:06.911Z,1.50
2018-11-27T03:43:37.874Z,1.50
2018-11-27T03:46:08.891Z,1.60
2018-11-27T03:48:39.899Z,1.70
2018-11-27T03:51:11.161Z,1.70
2018-11-27T03:53:42.159Z,1.70
2018-11-27T03:56:13.164Z,1.70
2018-11-27T03:58:44.193Z,1.80
2018-11-27T04:01:15.231Z,1.70
2018-11-27T04:03:46.179Z,1.70
2018-11-27T04:06:17.181Z,1.70
2018-11-27T04:08:48.343Z,1.70
2018-11-27T04:11:19.499Z,1.60
2018-11-27T04:13:50.581Z,1.60
2018-11-27T04:16:21.620Z,1.60
2018-11-27T04:18:52.592Z,1.60
2018-11-27T04:21:23.659Z,1.70
2018-11-27T04:23:54.642Z,1.70
2018-11-27T04:26:25.700Z,1.70
2018-11-27T04:28:57.138Z,1.70
2018-11-27T04:31:28.252Z,1.80
2018-11-27T04:33:59.266Z,1.80
2018-11-27T04:36:30.267Z,1.70
2018-11-27T04:39:01.222Z,1.80
2018-11-27T04:41:32.239Z,1.80
2018-11-27T04:44:03.201Z,1.80
2018-11-27T04:46:34.983Z,1.80
2018-11-27T04:49:06.603Z,1.90
2018-11-27T04:51:37.680Z,1.90
2018-11-27T04:54:08.632Z,1.90
2018-11-27T04:56:39.714Z,1.80
2018-11-27T04:59:10.739Z,1.70
2018-11-27T05:01:41.723Z,1.70
2018-11-27T05:04:12.710Z,1.80
2018-11-27T05:06:45.762Z,1.80
2018-11-27T05:09:16.832Z,1.80
2018-11-27T05:11:47.898Z,1.80
2018-11-27T05:14:19.008Z,1.80
2018-11-27T05:16:50.918Z,1.70
2018-11-27T05:19:21.958Z,1.70
2018-11-27T05:21:53.018Z,1.70
2018-11-27T05:24:23.958Z,1.80
2018-11-27T05:26:55.024Z,1.80
2018-11-27T05:29:25.998Z,1.70
2018-11-27T05:31:57.051Z,1.70
2018-11-27T05:34:28.100Z,1.60
2018-11-27T05:37:00.211Z,1.60
2018-11-27T05:39:31.147Z,1.50
2018-11-27T05:42:02.150Z,1.60
2018-11-27T05:44:33.121Z,1.50
2018-11-27T05:47:04.161Z,1.50
2018-11-27T05:49:35.105Z,1.50
2018-11-27T05:52:06.142Z,1.70
2018-11-27T05:54:37.074Z,1.60
2018-11-27T05:57:08.439Z,1.60
2018-11-27T05:59:39.419Z,1.50
2018-11-27T06:02:10.939Z,1.60
2018-11-27T06:04:41.873Z,1.50
2018-11-27T06:07:12.874Z,1.60
2018-11-27T06:09:43.891Z,1.50
2018-11-27T06:12:15.199Z,1.60
2018-11-27T06:14:46.157Z,1.60
2018-11-27T06:17:17.166Z,1.60
2018-11-27T06:19:48.085Z,1.50
2018-11-27T06:22:19.100Z,1.40
2018-11-27T06:24:50.086Z,1.50
2018-11-27T06:27:21.020Z,1.40
2018-11-27T06:29:52.018Z,1.40
2018-11-27T06:32:23.079Z,1.30
2018-11-27T06:34:54.140Z,1.30
2018-11-27T06:37:25.151Z,1.40
2018-11-27T06:39:56.234Z,1.40
2018-11-27T06:42:27.414Z,1.40
2018-11-27T06:44:58.466Z,1.40
2018-11-27T06:47:29.428Z,1.40
2018-11-27T06:50:00.753Z,1.50
2018-11-27T06:52:31.698Z,1.50
2018-11-27T06:55:02.711Z,1.60
2018-11-27T06:57:33.683Z,1.60
2018-11-27T07:00:05.838Z,1.50
2018-11-27T07:02:37.956Z,1.60
2018-11-27T07:05:08.775Z,1.60
2018-11-27T07:07:42.067Z,1.60
2018-11-27T07:10:18.339Z,1.60
2018-11-27T07:12:50.769Z,1.50
2018-11-27T07:15:24.322Z,1.60
2018-11-27T07:17:55.200Z,1.60
2018-11-27T07:20:26.219Z,1.60
2018-11-27T07:22:57.218Z,1.60
2018-11-27T07:25:28.279Z,1.60
2018-11-27T07:27:59.843Z,1.70
2018-11-27T07:30:30.868Z,1.70
2018-11-27T07:33:01.892Z,1.60
2018-11-27T07:35:33.127Z,1.70
2018-11-27T07:38:04.167Z,1.70
2018-11-27T07:40:35.301Z,1.70
2018-11-27T07:43:11.866Z,1.60
2018-11-27T07:45:42.974Z,1.70
2018-11-27T07:48:13.898Z,1.80
2018-11-27T07:50:44.919Z,1.90
2018-11-27T07:53:15.863Z,1.80
2018-11-27T07:55:46.871Z,1.90
2018-11-27T07:58:17.843Z,1.80
2018-11-27T08:00:49.514Z,1.90
2018-11-27T08:03:21.171Z,1.90
2018-11-27T08:05:52.268Z,1.80
2018-11-27T08:08:23.088Z,1.90
2018-11-27T08:10:54.270Z,1.90
2018-11-27T08:13:25.329Z,2.00
2018-11-27T08:15:57.157Z,2.00
2018-11-27T08:18:28.402Z,2.00
2018-11-27T08:20:59.881Z,1.90
2018-11-27T08:23:30.859Z,2.00
2018-11-27T08:26:04.011Z,2.10
2018-11-27T08:28:35.011Z,2.00
2018-11-27T08:31:06.075Z,2.00
2018-11-27T08:33:37.079Z,1.90
2018-11-27T08:36:08.365Z,1.90
2018-11-27T08:38:39.301Z,1.90
2018-11-27T08:41:10.311Z,1.90
2018-11-27T08:43:41.359Z,1.90
2018-11-27T08:46:12.479Z,1.90
2018-11-27T08:48:43.519Z,2.00
2018-11-27T08:51:14.621Z,2.00
2018-11-27T08:53:45.873Z,1.90
2018-11-27T08:56:17.013Z,1.90
2018-11-27T08:58:48.030Z,1.90
2018-11-27T09:01:19.174Z,1.90
2018-11-27T09:03:50.199Z,2.00
2018-11-27T09:06:21.987Z,2.00
2018-11-27T09:08:52.906Z,1.90
2018-11-27T09:11:24.019Z,2.10
2018-11-27T09:13:54.976Z,2.00
2018-11-27T09:16:25.962Z,1.90
2018-11-27T09:18:56.934Z,1.90
2018-11-27T09:21:27.938Z,2.00
2018-11-27T09:23:58.993Z,2.00
2018-11-27T09:26:30.110Z,2.10
2018-11-27T09:29:01.919Z,2.00
2018-11-27T09:31:32.998Z,2.10
2018-11-27T09:34:03.937Z,2.10
2018-11-27T09:36:34.978Z,2.00
2018-11-27T09:39:10.195Z,2.10
2018-11-27T09:41:41.216Z,2.00
2018-11-27T09:44:12.178Z,2.00
2018-11-27T09:46:43.279Z,2.10
2018-11-27T09:49:14.239Z,2.10
2018-11-27T09:51:45.271Z,2.20
2018-11-27T09:54:16.227Z,2.20
2018-11-27T09:56:47.209Z,2.40
2018-11-27T09:59:18.129Z,2.40
2018-11-27T10:01:49.122Z,2.40
2018-11-27T10:04:20.101Z,2.30
2018-11-27T10:06:52.397Z,2.40
2018-11-27T10:09:23.700Z,2.40
2018-11-27T10:11:54.766Z,2.50
2018-11-27T10:14:25.686Z,2.40
2018-11-27T10:16:57.678Z,2.40
2018-11-27T10:19:29.472Z,2.40
2018-11-27T10:22:00.450Z,2.30
2018-11-27T10:24:31.567Z,2.30
2018-11-27T10:27:02.645Z,2.40
2018-11-27T10:29:33.610Z,2.30
2018-11-27T10:32:04.752Z,2.40
2018-11-27T10:34:35.848Z,2.30
2018-11-27T10:37:07.219Z,2.40
2018-11-27T10:39:38.138Z,2.40
2018-11-27T10:42:09.651Z,2.20
2018-11-27T10:44:41.043Z,2.30
2018-11-27T10:47:13.672Z,2.30
2018-11-27T10:49:44.578Z,2.30
2018-11-27T10:52:15.514Z,2.40
2018-11-27T10:54:46.481Z,2.30
2018-11-27T10:57:17.438Z,2.40
2018-11-27T10:59:48.331Z,2.40
2018-11-27T11:02:26.031Z,2.40
2018-11-27T11:04:57.139Z,2.30
2018-11-27T11:07:28.238Z,2.20
2018-11-27T11:09:59.200Z,2.30
2018-11-27T11:12:31.141Z,2.40
2018-11-27T11:15:02.124Z,2.50
2018-11-27T11:17:33.163Z,2.50
2018-11-27T11:20:05.102Z,2.40
2018-11-27T11:22:37.242Z,2.50
2018-11-27T11:25:15.943Z,2.40
2018-11-27T11:27:49.197Z,2.40
2018-11-27T11:30:21.705Z,2.40
2018-11-27T11:32:53.534Z,2.40
2018-11-27T11:35:25.092Z,2.40
2018-11-27T11:37:56.122Z,2.50
2018-11-27T11:40:27.179Z,2.40
2018-11-27T11:42:59.782Z,2.50
2018-11-27T11:45:30.779Z,2.40
2018-11-27T11:48:01.879Z,2.40
2018-11-27T11:50:34.977Z,2.40
2018-11-27T11:53:11.759Z,2.40
2018-11-27T11:55:43.115Z,2.50
2018-11-27T11:58:15.141Z,2.40
2018-11-27T12:00:49.892Z,2.50
2018-11-27T12:03:23.014Z,2.50
2018-11-27T12:05:54.010Z,2.60
2018-11-27T12:08:25.061Z,2.60
2018-11-27T12:10:56.119Z,2.60
2018-11-27T12:13:27.187Z,2.60
2018-11-27T12:15:58.254Z,2.60
2018-11-27T12:18:29.259Z,2.60
2018-11-27T12:21:00.413Z,2.60
2018-11-27T12:23:31.439Z,2.50
2018-11-27T12:26:02.459Z,2.60
2018-11-27T12:28:36.052Z,2.50
2018-11-27T12:31:08.059Z,2.50
2018-11-27T12:33:41.918Z,2.50
2018-11-27T12:36:13.033Z,2.50
2018-11-27T12:38:44.830Z,2.50
2018-11-27T12:41:16.236Z,2.50
2018-11-27T12:43:47.283Z,2.40
2018-11-27T12:46:18.944Z,2.30
2018-11-27T12:48:50.097Z,2.30
2018-11-27T12:51:21.097Z,2.20
2018-11-27T12:53:52.179Z,2.30
2018-11-27T12:56:23.531Z,2.20
2018-11-27T12:58:54.588Z,2.20
2018-11-27T13:01:25.591Z,2.30
2018-11-27T13:03:56.682Z,2.20
2018-11-27T13:06:27.972Z,2.30
2018-11-27T13:08:59.102Z,2.30
2018-11-27T13:11:30.122Z,2.30
2018-11-27T13:14:02.551Z,2.30
2018-11-27T13:16:33.495Z,2.30
2018-11-27T13:19:04.695Z,2.20
2018-11-27T13:21:36.393Z,2.30
2018-11-27T13:24:07.580Z,2.10
2018-11-27T13:26:38.610Z,2.20
2018-11-27T13:29:09.598Z,2.00
2018-11-27T13:31:40.620Z,2.00
2018-11-27T13:34:15.610Z,2.10
2018-11-27T13:36:46.714Z,1.90
2018-11-27T13:39:41.940Z,2.00
2018-11-27T13:42:13.162Z,2.10
2018-11-27T13:44:44.188Z,2.00
2018-11-27T13:47:15.650Z,2.00
2018-11-27T13:49:46.721Z,2.00
2018-11-27T13:52:17.754Z,2.00
2018-11-27T13:54:49.017Z,2.10
2018-11-27T13:57:19.991Z,2.10
2018-11-27T13:59:51.049Z,2.10
2018-11-27T14:02:22.067Z,2.00
2018-11-27T14:04:53.066Z,2.00
2018-11-27T14:07:24.032Z,2.00
2018-11-27T14:09:55.710Z,2.00
2018-11-27T14:12:26.743Z,2.00
2018-11-27T14:14:57.867Z,2.00
2018-11-27T14:17:30.295Z,1.90
2018-11-27T14:20:01.469Z,2.00
2018-11-27T14:22:34.734Z,1.90
2018-11-27T14:25:06.137Z,1.90
2018-11-27T14:27:37.042Z,1.90
2018-11-27T14:30:22.319Z,1.90
2018-11-27T14:32:53.932Z,1.90
2018-11-27T14:35:25.603Z,1.90
2018-11-27T14:37:57.179Z,1.80
2018-11-27T14:40:29.105Z,1.80
2018-11-27T14:43:00.075Z,1.80
2018-11-27T14:45:31.107Z,1.80
2018-11-27T14:48:06.798Z,1.80
2018-11-27T14:50:37.900Z,1.80
2018-11-27T14:53:09.862Z,1.80
2018-11-27T14:55:41.238Z,1.80
2018-11-27T14:58:15.156Z,1.80
2018-11-27T15:00:44.033Z,1.80
2018-11-27T15:03:16.720Z,1.80
2018-11-27T15:05:49.019Z,1.80
2018-11-27T15:08:21.761Z,1.80
2018-11-27T15:10:52.954Z,1.80
2018-11-27T15:13:26.238Z,1.80
2018-11-27T15:15:57.917Z,1.80
2018-11-27T15:18:29.451Z,1.80
2018-11-27T15:21:02.267Z,1.80
2018-11-27T15:23:33.420Z,1.80
2018-11-27T15:26:06.041Z,1.80
2018-11-27T15:28:37.905Z,1.80
2018-11-27T15:31:09.705Z,1.80
2018-11-27T15:33:41.340Z,1.80
2018-11-27T15:36:12.449Z,1.80
2018-11-27T15:38:44.225Z,1.70
2018-11-27T15:41:15.533Z,1.70
2018-11-27T15:43:47.047Z,1.70
2018-11-27T15:46:18.993Z,1.70
2018-11-27T15:48:50.042Z,1.70
2018-11-27T15:51:22.063Z,1.70
2018-11-27T15:53:53.220Z,1.70
2018-11-27T15:56:25.708Z,1.80
2018-11-27T15:58:59.159Z,1.80
2018-11-27T16:01:31.423Z,1.80
2018-11-27T16:04:02.446Z,1.80
2018-11-27T16:06:33.761Z,1.80
2018-11-27T16:09:07.620Z,1.80
2018-11-27T16:11:40.142Z,1.90
2018-11-27T16:14:11.224Z,2.00
2018-11-27T16:16:42.563Z,2.00
2018-11-27T16:19:14.547Z,2.00
2018-11-27T16:21:47.429Z,2.00
2018-11-27T16:24:18.515Z,2.00
2018-11-27T16:26:50.113Z,2.10
2018-11-27T16:29:21.577Z,2.10
2018-11-27T16:31:53.108Z,2.00
2018-11-27T16:34:24.424Z,2.00
2018-11-27T16:36:55.480Z,2.10
2018-11-27T16:39:27.372Z,2.10
2018-11-27T16:41:59.017Z,2.20
2018-11-27T16:44:30.572Z,2.20
2018-11-27T16:47:02.134Z,2.20
2018-11-27T16:49:33.168Z,2.30
2018-11-27T16:52:04.448Z,2.30
2018-11-27T16:54:35.550Z,2.40
2018-11-27T16:57:06.951Z,2.30
2018-11-27T16:59:38.043Z,2.30
2018-11-27T17:02:10.102Z,2.30
2018-11-27T17:04:41.249Z,2.30
2018-11-27T17:07:12.303Z,2.20
2018-11-27T17:09:43.925Z,2.30
2018-11-27T17:12:16.053Z,2.20
2018-11-27T17:14:47.026Z,2.20
2018-11-27T17:17:18.431Z,2.10
2018-11-27T17:19:49.506Z,2.10
2018-11-27T17:22:20.673Z,2.10
2018-11-27T17:24:52.180Z,2.10
2018-11-27T17:27:23.203Z,2.20
2018-11-27T17:29:54.217Z,2.20
2018-11-27T17:32:26.305Z,2.20
2018-11-27T17:34:57.346Z,2.10
2018-11-27T17:37:28.439Z,2.10
2018-11-27T17:39:59.494Z,2.10
2018-11-27T17:42:30.619Z,2.10
2018-11-27T17:45:01.742Z,2.00
2018-11-27T17:47:32.919Z,2.10
2018-11-27T17:50:04.467Z,2.10
2018-11-27T17:52:36.759Z,2.10
2018-11-27T17:55:09.943Z,2.00
2018-11-27T17:57:41.499Z,2.10
2018-11-27T18:00:23.186Z,2.00
2018-11-27T18:02:57.163Z,2.00
2018-11-27T18:05:28.519Z,1.90
2018-11-27T18:08:00.726Z,1.90
2018-11-27T18:10:30.741Z,1.90
2018-11-27T18:13:02.200Z,1.90
2018-11-27T18:15:34.099Z,2.00
2018-11-27T18:18:05.411Z,2.10
2018-11-27T18:20:36.679Z,2.20
2018-11-27T18:23:07.780Z,2.20
2018-11-27T18:25:38.808Z,2.20
2018-11-27T18:28:09.972Z,2.20
2018-11-27T18:30:40.998Z,2.20
2018-11-27T18:33:16.091Z,2.50
2018-11-27T18:35:47.243Z,2.80
2018-11-27T18:38:18.339Z,2.60
2018-11-27T18:40:49.812Z,2.30
2018-11-27T18:43:21.844Z,2.20
2018-11-27T18:45:52.947Z,2.20
2018-11-27T18:48:24.180Z,2.10
2018-11-27T18:50:55.273Z,2.10
2018-11-27T18:53:27.519Z,2.10
2018-11-27T18:55:58.708Z,2.00
2018-11-27T18:58:29.858Z,2.00
2018-11-27T19:01:01.242Z,2.10
2018-11-27T19:03:32.490Z,2.00
2018-11-27T19:06:03.556Z,2.00
2018-11-27T19:08:34.879Z,2.00
2018-11-27T19:11:07.098Z,2.00
2018-11-27T19:13:39.087Z,2.00
2018-11-27T19:16:10.512Z,2.00
2018-11-27T19:18:41.878Z,2.00
2018-11-27T19:21:13.239Z,1.90
2018-11-27T19:23:44.618Z,1.80
2018-11-27T19:26:16.787Z,1.80
2018-11-27T19:28:48.373Z,1.90
2018-11-27T19:31:20.631Z,1.90
2018-11-27T19:33:52.162Z,1.90
2018-11-27T19:36:24.559Z,1.90
2018-11-27T19:38:57.102Z,1.90
2018-11-27T19:41:31.551Z,1.80
2018-11-27T19:44:03.951Z,1.80
2018-11-27T19:46:35.490Z,1.80
2018-11-27T19:49:07.095Z,1.80
2018-11-27T19:51:38.506Z,1.80
2018-11-27T19:54:10.529Z,1.80
2018-11-27T19:56:41.721Z,1.80
2018-11-27T19:59:13.442Z,1.80
2018-11-27T20:01:44.990Z,1.70
2018-11-27T20:04:16.702Z,1.70
2018-11-27T20:06:48.398Z,1.70
2018-11-27T20:09:20.139Z,1.80
2018-11-27T20:11:51.724Z,1.70
2018-11-27T20:14:23.876Z,1.70
2018-11-27T20:16:55.634Z,1.70
2018-11-27T20:19:27.393Z,1.70
2018-11-27T20:21:59.205Z,1.70
2018-11-27T20:24:30.945Z,1.70
2018-11-27T20:27:02.657Z,1.70
2018-11-27T20:29:34.371Z,1.70
2018-11-27T20:32:06.233Z,1.70
2018-11-27T20:34:37.921Z,1.60
2018-11-27T20:37:09.572Z,1.70
2018-11-27T20:39:41.051Z,1.60
2018-11-27T20:42:13.818Z,1.60
2018-11-27T20:44:45.500Z,1.60
2018-11-27T20:47:17.893Z,1.60
2018-11-27T20:49:49.505Z,1.70
2018-11-27T20:52:21.385Z,1.70
2018-11-27T20:54:52.939Z,1.70
2018-11-27T20:57:25.622Z,1.60
2018-11-27T20:59:57.199Z,1.60
2018-11-27T21:02:28.456Z,1.60
2018-11-27T21:04:59.807Z,1.60
2018-11-27T21:07:31.335Z,1.70
2018-11-27T21:10:02.549Z,1.60
2018-11-27T21:12:33.683Z,1.60
2018-11-27T21:15:05.526Z,1.60
2018-11-27T21:17:38.735Z,1.60
2018-11-27T21:20:12.589Z,1.60
2018-11-27T21:22:44.090Z,1.70
2018-11-27T21:25:24.227Z,1.70
2018-11-27T21:28:02.893Z,1.70
2018-11-27T21:30:34.263Z,1.80
2018-11-27T21:33:08.800Z,1.70
2018-11-27T21:35:39.924Z,1.80
2018-11-27T21:38:11.443Z,1.70
2018-11-27T21:40:43.637Z,1.80
2018-11-27T21:43:32.584Z,1.70
2018-11-27T21:46:10.309Z,1.60
2018-11-27T21:48:41.459Z,1.60
2018-11-27T21:51:13.071Z,1.50
2018-11-27T21:53:44.449Z,1.50
2018-11-27T21:56:15.529Z,1.50
2018-11-27T21:58:47.131Z,1.40
2018-11-27T22:01:18.207Z,1.40
2018-11-27T22:03:49.198Z,1.40
2018-11-27T22:06:21.265Z,1.40
2018-11-27T22:08:52.519Z,1.50
2018-11-27T22:11:23.417Z,1.50
2018-11-27T22:13:55.139Z,1.40
2018-11-27T22:16:27.840Z,1.30
2018-11-27T22:18:58.804Z,1.20
2018-11-27T22:21:29.725Z,1.20
2018-11-27T22:24:00.773Z,1.20
2018-11-27T22:26:31.739Z,1.30
2018-11-27T22:29:04.257Z,1.10
2018-11-27T22:31:41.016Z,1.00
2018-11-27T22:34:12.180Z,0.90
2018-11-27T22:36:43.243Z,1.00
2018-11-27T22:39:15.537Z,1.00
2018-11-27T22:41:46.742Z,1.10
2018-11-27T22:44:17.820Z,1.00
2018-11-27T22:46:48.787Z,1.10
2018-11-27T22:49:19.798Z,1.20
2018-11-27T22:51:51.133Z,1.10
2018-11-27T22:54:23.021Z,1.00
2018-11-27T22:56:54.028Z,1.00
2018-11-27T22:59:25.918Z,1.00
2018-11-27T23:01:56.990Z,1.00
2018-11-27T23:04:29.338Z,0.80
2018-11-27T23:07:00.338Z,0.80
2018-11-27T23:09:31.459Z,1.00
2018-11-27T23:12:02.560Z,0.90
2018-11-27T23:14:33.579Z,0.90
2018-11-27T23:17:04.563Z,0.80
2018-11-27T23:19:36.483Z,0.70
2018-11-27T23:22:07.622Z,0.70
2018-11-27T23:24:38.620Z,0.70
2018-11-27T23:27:09.597Z,0.70
2018-11-27T23:29:40.875Z,0.70
2018-11-27T23:32:11.862Z,0.70
2018-11-27T23:34:42.910Z,0.70
2018-11-27T23:37:13.855Z,0.80
2018-11-27T23:39:44.839Z,0.80
2018-11-27T23:42:17.598Z,0.90
2018-11-27T23:44:48.541Z,0.80
2018-11-27T23:47:20.498Z,0.70
2018-11-27T23:49:53.078Z,0.50
2018-11-27T23:52:24.053Z,0.60
2018-11-27T23:54:55.074Z,0.60
2018-11-27T23:57:25.975Z,0.50
2018-11-27T23:59:57.102Z,0.60
